sensor_id;sensor_type;location;lat;lon;timestamp;temperature;humidity
66337;SHT30;53139;45.576;5.304;2023-05-10T00:39:53;10.62;99.99
66337;SHT30;53139;45.576;5.304;2023-05-10T00:43:51;10.57;99.99
66337;SHT30;53139;45.576;5.304;2023-05-10T00:47:54;10.57;99.99
66337;SHT30;53139;45.576;5.304;2023-05-10T00:56:09;10.54;99.98
66337;SHT30;53139;45.576;5.304;2023-05-10T01:00:25;10.58;99.82
66337;SHT30;53139;45.576;5.304;2023-05-10T01:04:40;10.69;99.76
66337;SHT30;53139;45.576;5.304;2023-05-10T01:13:02;10.68;99.95
66337;SHT30;53139;45.576;5.304;2023-05-10T01:17:35;10.76;99.64
66337;SHT30;53139;45.576;5.304;2023-05-10T01:21:53;10.81;99.94
66337;SHT30;53139;45.576;5.304;2023-05-10T01:34:13;10.81;99.99
66337;SHT30;53139;45.576;5.304;2023-05-10T01:43:00;10.89;99.99
66337;SHT30;53139;45.576;5.304;2023-05-10T01:47:09;10.92;99.99
66337;SHT30;53139;45.576;5.304;2023-05-10T01:51:02;10.88;99.71
66337;SHT30;53139;45.576;5.304;2023-05-10T01:55:03;10.89;99.82
66337;SHT30;53139;45.576;5.304;2023-05-10T01:59:05;10.86;99.90
66337;SHT30;53139;45.576;5.304;2023-05-10T02:03:11;10.91;99.87
66337;SHT30;53139;45.576;5.304;2023-05-10T02:07:24;10.88;99.99
66337;SHT30;53139;45.576;5.304;2023-05-10T02:11:19;10.92;99.99
66337;SHT30;53139;45.576;5.304;2023-05-10T02:15:15;11.02;99.99
66337;SHT30;53139;45.576;5.304;2023-05-10T02:19:21;10.98;99.99
66337;SHT30;53139;45.576;5.304;2023-05-10T02:23:34;10.92;99.99
66337;SHT30;53139;45.576;5.304;2023-05-10T02:27:42;10.96;99.99
66337;SHT30;53139;45.576;5.304;2023-05-10T02:36:15;11.05;99.99
66337;SHT30;53139;45.576;5.304;2023-05-10T02:40:33;11.06;99.99
66337;SHT30;53139;45.576;5.304;2023-05-10T02:44:42;11.09;99.99
66337;SHT30;53139;45.576;5.304;2023-05-10T02:48:40;11.06;99.99
66337;SHT30;53139;45.576;5.304;2023-05-10T02:57:00;11.16;99.95
66337;SHT30;53139;45.576;5.304;2023-05-10T03:09:39;11.20;99.99
66337;SHT30;53139;45.576;5.304;2023-05-10T03:18:17;11.23;99.99
66337;SHT30;53139;45.576;5.304;2023-05-10T03:22:25;11.31;99.99
66337;SHT30;53139;45.576;5.304;2023-05-10T03:26:34;11.31;99.99
66337;SHT30;53139;45.576;5.304;2023-05-10T03:30:37;11.35;99.99
66337;SHT30;53139;45.576;5.304;2023-05-10T03:34:45;11.34;99.99
66337;SHT30;53139;45.576;5.304;2023-05-10T03:38:48;11.33;99.99
66337;SHT30;53139;45.576;5.304;2023-05-10T03:43:11;11.35;99.99
66337;SHT30;53139;45.576;5.304;2023-05-10T03:47:29;11.28;99.99
66337;SHT30;53139;45.576;5.304;2023-05-10T03:51:48;11.28;99.99
66337;SHT30;53139;45.576;5.304;2023-05-10T03:56:00;11.28;99.99
66337;SHT30;53139;45.576;5.304;2023-05-10T04:00:07;11.30;99.99
66337;SHT30;53139;45.576;5.304;2023-05-10T04:04:15;11.30;99.99
66337;SHT30;53139;45.576;5.304;2023-05-10T04:08:20;11.24;99.99
66337;SHT30;53139;45.576;5.304;2023-05-10T04:12:25;11.15;99.99
66337;SHT30;53139;45.576;5.304;2023-05-10T04:20:34;11.03;99.99
66337;SHT30;53139;45.576;5.304;2023-05-10T04:24:34;11.09;99.99
66337;SHT30;53139;45.576;5.304;2023-05-10T04:32:46;10.91;99.99
66337;SHT30;53139;45.576;5.304;2023-05-10T04:37:04;10.92;99.99
66337;SHT30;53139;45.576;5.304;2023-05-10T04:41:10;10.89;99.99
66337;SHT30;53139;45.576;5.304;2023-05-10T04:45:07;10.89;99.99
66337;SHT30;53139;45.576;5.304;2023-05-10T04:49:23;10.78;99.99
66337;SHT30;53139;45.576;5.304;2023-05-10T04:53:11;10.68;99.99
66337;SHT30;53139;45.576;5.304;2023-05-10T05:12:50;10.34;99.81
66337;SHT30;53139;45.576;5.304;2023-05-10T05:16:55;10.32;99.43
66337;SHT30;53139;45.576;5.304;2023-05-10T05:20:52;10.33;99.23
66337;SHT30;53139;45.576;5.304;2023-05-10T05:24:36;10.23;99.21
66337;SHT30;53139;45.576;5.304;2023-05-10T05:28:43;10.37;96.26
66337;SHT30;53139;45.576;5.304;2023-05-10T05:32:34;10.34;98.42
66337;SHT30;53139;45.576;5.304;2023-05-10T05:36:18;10.36;98.87
66337;SHT30;53139;45.576;5.304;2023-05-10T05:40:45;10.33;98.80
66337;SHT30;53139;45.576;5.304;2023-05-10T05:44:51;10.24;99.79
66337;SHT30;53139;45.576;5.304;2023-05-10T05:48:33;10.37;98.89
66337;SHT30;53139;45.576;5.304;2023-05-10T05:56:04;10.54;97.27
66337;SHT30;53139;45.576;5.304;2023-05-10T05:59:32;10.72;97.14
66337;SHT30;53139;45.576;5.304;2023-05-10T06:07:42;10.72;96.64
66337;SHT30;53139;45.576;5.304;2023-05-10T06:15:48;10.81;93.91
66337;SHT30;53139;45.576;5.304;2023-05-10T06:23:56;10.93;91.00
66337;SHT30;53139;45.576;5.304;2023-05-10T06:28:26;11.05;92.40
66337;SHT30;53139;45.576;5.304;2023-05-10T06:32:39;11.02;91.31
66337;SHT30;53139;45.576;5.304;2023-05-10T06:36:49;11.27;89.76
66337;SHT30;53139;45.576;5.304;2023-05-10T06:44:55;11.26;92.82
66337;SHT30;53139;45.576;5.304;2023-05-10T06:48:33;11.34;92.68
66337;SHT30;53139;45.576;5.304;2023-05-10T06:52:04;11.58;91.24
66337;SHT30;53139;45.576;5.304;2023-05-10T06:55:54;11.61;90.02
66337;SHT30;53139;45.576;5.304;2023-05-10T06:59:47;11.79;89.18
66337;SHT30;53139;45.576;5.304;2023-05-10T07:03:47;11.88;85.90
66337;SHT30;53139;45.576;5.304;2023-05-10T07:11:26;12.25;84.52
66337;SHT30;53139;45.576;5.304;2023-05-10T07:15:33;12.25;82.73
66337;SHT30;53139;45.576;5.304;2023-05-10T07:19:49;12.25;85.43
66337;SHT30;53139;45.576;5.304;2023-05-10T07:24:13;12.55;84.00
66337;SHT30;53139;45.576;5.304;2023-05-10T07:41:17;12.95;84.96
66337;SHT30;53139;45.576;5.304;2023-05-10T20:25:50;10.32;88.10
66337;SHT30;53139;45.576;5.304;2023-05-10T20:28:51;10.47;87.42
66337;SHT30;53139;45.576;5.304;2023-05-10T20:31:51;10.40;87.92
66337;SHT30;53139;45.576;5.304;2023-05-10T20:34:51;10.23;88.87
66337;SHT30;53139;45.576;5.304;2023-05-10T20:37:52;10.36;88.23
66337;SHT30;53139;45.576;5.304;2023-05-10T20:40:52;10.27;89.15
66337;SHT30;53139;45.576;5.304;2023-05-10T20:43:52;10.29;88.82
66337;SHT30;53139;45.576;5.304;2023-05-10T20:46:53;10.40;88.36
66337;SHT30;53139;45.576;5.304;2023-05-10T20:49:53;10.44;88.45
66337;SHT30;53139;45.576;5.304;2023-05-10T20:52:53;10.47;88.50
66337;SHT30;53139;45.576;5.304;2023-05-10T20:55:54;10.47;88.94
66337;SHT30;53139;45.576;5.304;2023-05-10T20:58:54;10.50;89.18
66337;SHT30;53139;45.576;5.304;2023-05-10T21:01:58;10.55;89.05
66337;SHT30;53139;45.576;5.304;2023-05-10T21:04:58;10.52;89.30
66337;SHT30;53139;45.576;5.304;2023-05-10T21:07:58;10.57;88.91
66337;SHT30;53139;45.576;5.304;2023-05-10T21:11:01;10.58;88.65
66337;SHT30;53139;45.576;5.304;2023-05-10T21:14:04;10.61;88.64
66337;SHT30;53139;45.576;5.304;2023-05-10T21:17:04;10.55;88.94
66337;SHT30;53139;45.576;5.304;2023-05-10T21:20:05;10.60;88.80
66337;SHT30;53139;45.576;5.304;2023-05-10T21:23:06;10.57;88.89
66337;SHT30;53139;45.576;5.304;2023-05-10T21:26:06;10.48;88.99
66337;SHT30;53139;45.576;5.304;2023-05-10T21:29:06;10.44;88.61
66337;SHT30;53139;45.576;5.304;2023-05-10T21:32:07;10.43;88.03
66337;SHT30;53139;45.576;5.304;2023-05-10T21:35:07;10.44;87.79
66337;SHT30;53139;45.576;5.304;2023-05-10T21:38:08;10.30;88.41
66337;SHT30;53139;45.576;5.304;2023-05-10T21:41:09;10.34;88.39
66337;SHT30;53139;45.576;5.304;2023-05-10T21:44:10;10.34;88.50
66337;SHT30;53139;45.576;5.304;2023-05-10T21:47:10;10.36;88.49
66337;SHT30;53139;45.576;5.304;2023-05-10T21:50:11;10.32;89.35
66337;SHT30;53139;45.576;5.304;2023-05-10T21:53:11;10.29;89.16
66337;SHT30;53139;45.576;5.304;2023-05-10T21:56:12;10.26;88.86
66337;SHT30;53139;45.576;5.304;2023-05-10T21:59:12;10.27;88.93
66337;SHT30;53139;45.576;5.304;2023-05-10T22:02:13;10.18;89.37
66337;SHT30;53139;45.576;5.304;2023-05-10T22:05:13;10.07;89.85
66337;SHT30;53139;45.576;5.304;2023-05-10T22:08:14;10.06;89.73
66337;SHT30;53139;45.576;5.304;2023-05-10T22:11:14;9.99;90.29
66337;SHT30;53139;45.576;5.304;2023-05-10T22:14:15;9.90;90.37
66337;SHT30;53139;45.576;5.304;2023-05-10T22:17:15;9.90;90.72
66337;SHT30;53139;45.576;5.304;2023-05-10T22:20:16;9.96;90.48
66337;SHT30;53139;45.576;5.304;2023-05-10T22:23:16;9.99;90.50
66337;SHT30;53139;45.576;5.304;2023-05-10T22:26:16;10.03;90.27
66337;SHT30;53139;45.576;5.304;2023-05-10T22:29:17;9.89;91.34
66337;SHT30;53139;45.576;5.304;2023-05-10T22:32:17;9.96;91.50
66337;SHT30;53139;45.576;5.304;2023-05-10T22:35:17;9.85;91.85
66337;SHT30;53139;45.576;5.304;2023-05-10T22:38:18;9.78;91.53
66337;SHT30;53139;45.576;5.304;2023-05-10T22:41:20;9.82;91.56
66337;SHT30;53139;45.576;5.304;2023-05-10T22:44:21;9.78;91.69
66337;SHT30;53139;45.576;5.304;2023-05-10T22:47:21;9.79;91.50
66337;SHT30;53139;45.576;5.304;2023-05-10T22:50:22;9.71;91.69
66337;SHT30;53139;45.576;5.304;2023-05-10T22:53:23;9.88;90.89
66337;SHT30;53139;45.576;5.304;2023-05-10T22:56:32;9.88;91.02
66337;SHT30;53139;45.576;5.304;2023-05-10T22:59:59;9.88;91.18
66337;SHT30;53139;45.576;5.304;2023-05-10T23:03:24;9.82;91.11
66337;SHT30;53139;45.576;5.304;2023-05-10T23:06:50;9.82;90.96
66337;SHT30;53139;45.576;5.304;2023-05-10T23:10:19;9.81;91.34
66337;SHT30;53139;45.576;5.304;2023-05-10T23:13:46;9.89;91.58
66337;SHT30;53139;45.576;5.304;2023-05-10T23:17:10;9.90;91.32
66337;SHT30;53139;45.576;5.304;2023-05-10T23:20:32;9.98;90.90
66337;SHT30;53139;45.576;5.304;2023-05-10T23:23:55;10.00;91.13
66337;SHT30;53139;45.576;5.304;2023-05-10T23:27:20;10.03;90.90
66337;SHT30;53139;45.576;5.304;2023-05-10T23:30:53;10.06;91.04
66337;SHT30;53139;45.576;5.304;2023-05-10T23:34:19;10.09;91.52
66337;SHT30;53139;45.576;5.304;2023-05-10T23:37:48;10.07;91.66
66337;SHT30;53139;45.576;5.304;2023-05-10T23:41:14;10.12;91.47
66337;SHT30;53139;45.576;5.304;2023-05-10T23:44:36;10.10;91.48
66337;SHT30;53139;45.576;5.304;2023-05-10T23:48:12;10.05;91.76
66337;SHT30;53139;45.576;5.304;2023-05-10T23:51:42;9.90;92.05
66337;SHT30;53139;45.576;5.304;2023-05-10T23:55:19;9.79;91.41
66337;SHT30;53139;45.576;5.304;2023-05-10T23:58:49;9.74;91.88
